createdAt,value
2022-07-31T00:02:02.631Z,19.10
2022-07-31T00:04:33.042Z,19.03
2022-07-31T00:07:04.159Z,18.93
2022-07-31T00:09:54.163Z,18.90
2022-07-31T00:12:07.258Z,18.87
2022-07-31T00:14:37.682Z,18.84
2022-07-31T00:17:10.867Z,18.84
2022-07-31T00:19:41.816Z,18.86
2022-07-31T00:22:13.657Z,18.82
2022-07-31T00:24:45.114Z,18.80
2022-07-31T00:27:15.679Z,18.85
2022-07-31T00:29:46.140Z,18.70
2022-07-31T00:32:16.959Z,18.74
2022-07-31T00:34:47.369Z,18.87
2022-07-31T00:37:20.071Z,18.71
2022-07-31T00:39:52.976Z,18.68
2022-07-31T00:42:25.446Z,18.65
2022-07-31T00:44:55.874Z,18.74
2022-07-31T00:47:27.287Z,18.72
2022-07-31T00:49:57.812Z,18.79
2022-07-31T00:52:28.553Z,18.75
2022-07-31T00:54:59.141Z,18.85
2022-07-31T00:57:29.855Z,18.64
2022-07-31T01:00:00.408Z,18.74
2022-07-31T01:02:32.381Z,18.76
2022-07-31T01:05:02.777Z,18.71
2022-07-31T01:07:33.490Z,18.68
2022-07-31T01:10:07.168Z,18.52
2022-07-31T01:12:55.890Z,18.52
2022-07-31T01:15:28.144Z,18.52
2022-07-31T01:18:00.526Z,18.50
2022-07-31T01:20:32.477Z,18.51
2022-07-31T01:23:32.651Z,18.40
2022-07-31T01:26:09.068Z,18.41
2022-07-31T01:29:03.439Z,18.40
2022-07-31T01:31:37.109Z,18.42
2022-07-31T01:34:28.523Z,18.42
2022-07-31T01:37:05.213Z,18.32
2022-07-31T01:39:37.942Z,18.21
2022-07-31T01:42:09.932Z,18.10
2022-07-31T01:44:43.385Z,18.09
2022-07-31T01:47:17.320Z,18.02
2022-07-31T01:49:50.647Z,18.04
2022-07-31T01:52:21.823Z,18.19
2022-07-31T01:54:54.611Z,18.06
2022-07-31T01:57:27.039Z,18.00
2022-07-31T02:00:02.827Z,17.92
2022-07-31T02:02:35.463Z,17.98
2022-07-31T02:05:08.696Z,17.77
2022-07-31T02:07:41.761Z,17.77
2022-07-31T02:10:14.480Z,17.64
2022-07-31T02:12:46.084Z,17.52
2022-07-31T02:15:18.394Z,17.46
2022-07-31T02:17:51.097Z,17.44
2022-07-31T02:20:23.421Z,17.51
2022-07-31T02:22:55.140Z,17.43
2022-07-31T02:25:26.689Z,17.33
2022-07-31T02:28:00.604Z,17.37
2022-07-31T02:30:39.426Z,17.28
2022-07-31T02:33:08.029Z,17.35
2022-07-31T02:35:43.858Z,17.16
2022-07-31T02:38:17.151Z,17.16
2022-07-31T02:40:47.772Z,17.14
2022-07-31T02:43:20.357Z,17.24
2022-07-31T02:45:51.224Z,17.05
2022-07-31T02:48:22.075Z,16.94
2022-07-31T02:50:53.141Z,16.89
2022-07-31T02:53:23.846Z,16.84
2022-07-31T02:55:55.706Z,17.05
2022-07-31T02:58:26.115Z,16.86
2022-07-31T03:01:04.056Z,16.82
2022-07-31T03:03:34.619Z,16.84
2022-07-31T03:06:05.246Z,16.80
2022-07-31T03:08:35.737Z,16.72
2022-07-31T03:11:06.738Z,16.94
2022-07-31T03:13:40.750Z,17.14
2022-07-31T03:16:12.433Z,16.96
2022-07-31T03:18:44.157Z,16.94
2022-07-31T03:21:15.455Z,17.09
2022-07-31T03:23:47.239Z,17.06
2022-07-31T03:26:18.061Z,16.94
2022-07-31T03:28:48.853Z,16.87
2022-07-31T03:31:19.874Z,16.88
2022-07-31T03:33:50.301Z,16.87
2022-07-31T03:36:20.921Z,16.94
2022-07-31T03:38:51.295Z,17.00
2022-07-31T03:41:21.814Z,16.86
2022-07-31T03:43:52.826Z,16.92
2022-07-31T03:46:24.822Z,17.08
2022-07-31T03:48:55.423Z,17.18
2022-07-31T03:51:26.105Z,17.17
2022-07-31T03:53:56.670Z,16.97
2022-07-31T03:56:28.351Z,17.01
2022-07-31T03:58:59.126Z,17.09
2022-07-31T04:01:57.948Z,16.95
2022-07-31T04:04:04.513Z,16.90
2022-07-31T04:06:34.959Z,16.98
2022-07-31T04:09:07.897Z,16.92
2022-07-31T04:11:37.716Z,16.98
2022-07-31T04:14:08.774Z,16.97
2022-07-31T04:16:39.427Z,17.02
2022-07-31T04:19:10.428Z,17.13
2022-07-31T04:21:40.939Z,17.07
2022-07-31T04:24:13.025Z,17.01
2022-07-31T04:26:43.928Z,17.11
2022-07-31T04:29:14.464Z,17.17
2022-07-31T04:31:45.129Z,17.17
2022-07-31T04:34:15.480Z,17.23
2022-07-31T04:36:46.007Z,17.18
2022-07-31T04:39:16.441Z,17.40
2022-07-31T04:41:46.865Z,17.45
2022-07-31T04:44:17.216Z,17.36
2022-07-31T04:46:49.038Z,17.40
2022-07-31T04:49:19.527Z,17.50
2022-07-31T04:51:50.011Z,17.88
2022-07-31T04:54:20.438Z,17.61
2022-07-31T04:56:50.977Z,17.77
2022-07-31T04:59:23.439Z,17.88
2022-07-31T05:01:55.603Z,18.19
2022-07-31T05:04:26.622Z,18.40
2022-07-31T05:06:57.006Z,19.18
2022-07-31T05:09:29.263Z,21.79
2022-07-31T05:12:01.803Z,24.18
2022-07-31T05:14:32.669Z,26.37
2022-07-31T05:17:03.300Z,27.83
2022-07-31T05:19:33.852Z,29.38
2022-07-31T05:24:33.609Z,31.17
2022-07-31T05:26:59.075Z,32.28
2022-07-31T05:29:29.841Z,32.81
2022-07-31T05:32:01.429Z,32.94
2022-07-31T05:34:32.052Z,33.52
2022-07-31T05:37:03.090Z,33.38
2022-07-31T05:39:33.461Z,34.41
2022-07-31T05:42:05.929Z,32.88
2022-07-31T05:44:36.581Z,33.94
2022-07-31T05:47:08.890Z,34.41
2022-07-31T05:49:39.402Z,33.67
2022-07-31T05:52:09.836Z,32.96
2022-07-31T05:54:40.361Z,34.68
2022-07-31T05:57:10.827Z,35.40
2022-07-31T05:59:41.272Z,35.34
2022-07-31T06:02:11.724Z,35.38
2022-07-31T06:04:42.159Z,33.59
2022-07-31T06:07:12.624Z,32.75
2022-07-31T06:09:43.111Z,33.91
2022-07-31T06:12:15.199Z,34.45
2022-07-31T06:14:45.767Z,35.49
2022-07-31T06:17:16.281Z,36.55
2022-07-31T06:19:46.842Z,37.07
2022-07-31T06:22:17.290Z,36.71
2022-07-31T06:24:47.744Z,37.69
2022-07-31T06:27:22.051Z,37.77
2022-07-31T06:29:50.441Z,38.05
2022-07-31T06:32:20.939Z,37.65
2022-07-31T06:34:51.548Z,38.02
2022-07-31T06:37:22.000Z,37.79
2022-07-31T06:39:54.824Z,37.61
2022-07-31T06:42:26.292Z,38.50
2022-07-31T06:44:56.790Z,39.02
2022-07-31T06:47:27.632Z,39.41
2022-07-31T06:49:58.186Z,39.25
2022-07-31T06:52:28.862Z,37.59
2022-07-31T06:55:00.967Z,34.41
2022-07-31T06:57:31.636Z,31.09
2022-07-31T07:00:07.247Z,28.57
2022-07-31T07:02:34.322Z,27.42
2022-07-31T07:05:06.966Z,26.25
2022-07-31T07:07:38.737Z,25.26
2022-07-31T07:10:09.250Z,24.68
2022-07-31T07:12:40.143Z,24.04
2022-07-31T07:15:11.855Z,23.48
2022-07-31T07:17:42.328Z,23.00
2022-07-31T07:20:13.799Z,23.20
2022-07-31T07:22:44.244Z,23.14
2022-07-31T07:25:14.947Z,23.37
2022-07-31T07:27:45.311Z,22.95
2022-07-31T07:30:15.709Z,22.74
2022-07-31T07:32:46.264Z,22.62
2022-07-31T07:35:16.930Z,22.71
2022-07-31T07:37:47.608Z,23.04
2022-07-31T07:40:18.122Z,23.10
2022-07-31T07:42:49.238Z,23.00
2022-07-31T07:45:20.123Z,23.10
2022-07-31T07:47:53.712Z,23.11
2022-07-31T07:50:26.864Z,23.01
2022-07-31T07:52:56.263Z,23.11
2022-07-31T07:55:28.644Z,23.22
2022-07-31T07:58:00.796Z,23.45
2022-07-31T08:00:31.361Z,23.12
2022-07-31T08:03:46.900Z,23.28
2022-07-31T08:05:34.320Z,23.04
2022-07-31T08:08:06.439Z,23.27
2022-07-31T08:10:38.665Z,23.49
2022-07-31T08:13:09.163Z,23.45
2022-07-31T08:15:41.259Z,23.75
2022-07-31T08:18:11.811Z,23.50
2022-07-31T08:20:42.333Z,23.18
2022-07-31T08:23:12.878Z,23.38
2022-07-31T08:25:45.167Z,23.12
2022-07-31T08:28:19.507Z,23.02
2022-07-31T08:30:47.749Z,23.04
2022-07-31T08:33:19.076Z,23.30
2022-07-31T08:35:50.876Z,23.57
2022-07-31T08:38:21.723Z,23.56
2022-07-31T08:40:52.222Z,23.67
2022-07-31T08:44:00.791Z,23.62
2022-07-31T08:46:01.743Z,23.56
2022-07-31T08:48:34.537Z,23.80
2022-07-31T08:51:06.048Z,24.04
2022-07-31T08:53:37.844Z,24.02
2022-07-31T08:56:09.942Z,23.94
2022-07-31T08:58:40.548Z,23.67
2022-07-31T09:01:13.331Z,23.74
2022-07-31T09:03:44.274Z,23.96
2022-07-31T09:06:15.357Z,24.06
2022-07-31T09:08:46.295Z,24.01
2022-07-31T09:11:16.861Z,24.01
2022-07-31T09:14:07.293Z,24.12
2022-07-31T09:16:46.623Z,24.37
2022-07-31T09:19:53.047Z,24.57
2022-07-31T09:21:50.295Z,24.36
2022-07-31T09:24:29.963Z,24.45
2022-07-31T09:27:06.784Z,24.48
2022-07-31T09:29:40.504Z,24.65
2022-07-31T09:32:12.617Z,24.71
2022-07-31T09:34:44.811Z,24.82
2022-07-31T09:37:20.682Z,25.04
2022-07-31T09:39:57.190Z,24.92
2022-07-31T09:42:30.938Z,25.04
2022-07-31T09:45:02.270Z,25.04
2022-07-31T09:47:33.492Z,24.85
2022-07-31T09:50:05.826Z,25.10
2022-07-31T09:52:36.351Z,25.09
2022-07-31T09:55:15.917Z,24.92
2022-07-31T09:58:00.195Z,24.90
2022-07-31T10:00:31.216Z,25.01
2022-07-31T10:03:02.471Z,24.81
2022-07-31T10:05:33.434Z,24.66
2022-07-31T10:08:04.860Z,24.83
2022-07-31T10:10:36.629Z,24.85
2022-07-31T10:13:14.336Z,25.12
2022-07-31T10:15:47.375Z,25.19
2022-07-31T10:18:35.511Z,24.99
2022-07-31T10:20:55.828Z,25.51
2022-07-31T10:23:30.558Z,25.52
2022-07-31T10:26:03.152Z,25.64
2022-07-31T10:28:35.590Z,25.49
2022-07-31T10:31:06.425Z,25.62
2022-07-31T10:33:45.175Z,25.48
2022-07-31T10:36:18.988Z,25.52
2022-07-31T10:38:58.773Z,25.52
2022-07-31T10:41:44.630Z,25.77
2022-07-31T10:44:30.422Z,25.60
2022-07-31T10:47:01.098Z,25.76
2022-07-31T10:49:40.267Z,25.64
2022-07-31T10:52:11.416Z,25.83
2022-07-31T10:54:46.972Z,25.92
2022-07-31T10:57:30.500Z,26.52
2022-07-31T11:00:16.817Z,26.21
2022-07-31T11:02:47.777Z,25.97
2022-07-31T11:05:23.301Z,25.90
2022-07-31T11:08:05.708Z,26.18
2022-07-31T11:10:39.784Z,25.90
2022-07-31T11:13:12.198Z,26.06
2022-07-31T11:15:42.553Z,26.18
2022-07-31T11:18:24.954Z,26.36
2022-07-31T11:20:50.203Z,27.01
2022-07-31T11:23:22.181Z,27.21
2022-07-31T11:25:52.711Z,27.18
2022-07-31T11:28:24.583Z,27.35
2022-07-31T11:30:58.745Z,26.86
2022-07-31T11:33:43.133Z,26.74
2022-07-31T11:36:24.689Z,27.05
2022-07-31T11:38:57.094Z,26.54
2022-07-31T11:41:38.243Z,26.69
2022-07-31T11:44:03.823Z,26.36
2022-07-31T11:46:37.982Z,26.35
2022-07-31T11:49:08.537Z,26.46
2022-07-31T11:51:38.965Z,26.50
2022-07-31T11:54:09.393Z,26.57
2022-07-31T11:56:40.167Z,27.08
2022-07-31T11:59:44.854Z,26.70
2022-07-31T12:01:43.845Z,26.69
2022-07-31T12:04:17.769Z,27.40
2022-07-31T12:06:48.287Z,27.37
2022-07-31T12:10:01.867Z,27.63
2022-07-31T12:11:51.401Z,27.22
2022-07-31T12:14:39.186Z,26.87
2022-07-31T12:17:13.235Z,26.36
2022-07-31T12:19:45.597Z,26.16
2022-07-31T12:22:18.957Z,26.21
2022-07-31T12:24:52.638Z,26.08
2022-07-31T12:27:23.634Z,26.36
2022-07-31T12:30:05.131Z,26.37
2022-07-31T12:32:35.781Z,26.20
2022-07-31T12:35:07.368Z,25.78
2022-07-31T12:37:46.751Z,25.98
2022-07-31T12:40:24.960Z,26.07
2022-07-31T12:42:55.942Z,26.08
2022-07-31T12:45:31.857Z,26.15
2022-07-31T12:48:02.770Z,26.08
2022-07-31T12:50:35.934Z,26.03
2022-07-31T12:53:07.010Z,26.82
2022-07-31T12:55:37.562Z,27.03
2022-07-31T12:58:10.347Z,27.54
2022-07-31T13:00:41.804Z,27.60
2022-07-31T13:03:14.235Z,27.70
2022-07-31T13:05:47.156Z,28.22
2022-07-31T13:08:16.871Z,28.49
2022-07-31T13:10:48.255Z,27.81
2022-07-31T13:13:19.420Z,27.84
2022-07-31T13:15:50.053Z,27.84
2022-07-31T13:18:22.895Z,27.95
2022-07-31T13:20:53.383Z,27.83
2022-07-31T13:23:25.452Z,27.71
2022-07-31T13:25:57.230Z,27.87
2022-07-31T13:28:28.528Z,27.97
2022-07-31T13:30:58.982Z,27.97
2022-07-31T13:33:29.596Z,27.70
2022-07-31T13:36:00.583Z,27.94
2022-07-31T13:38:31.085Z,27.92
2022-07-31T13:41:19.392Z,27.90
2022-07-31T13:43:59.805Z,27.76
2022-07-31T13:46:23.559Z,27.67
2022-07-31T13:48:55.869Z,27.82
2022-07-31T13:51:29.038Z,28.10
2022-07-31T13:53:59.845Z,28.36
2022-07-31T13:56:38.582Z,28.59
2022-07-31T13:59:03.083Z,28.45
2022-07-31T14:02:04.537Z,28.53
2022-07-31T14:04:07.204Z,28.26
2022-07-31T14:06:39.406Z,28.31
2022-07-31T14:09:10.004Z,27.69
2022-07-31T14:11:41.927Z,27.75
2022-07-31T14:14:14.110Z,27.84
2022-07-31T14:16:47.241Z,27.93
2022-07-31T14:19:18.652Z,28.03
2022-07-31T14:21:56.242Z,27.85
2022-07-31T14:24:21.574Z,27.88
2022-07-31T14:26:52.161Z,27.99
2022-07-31T14:29:22.680Z,28.18
2022-07-31T14:31:53.223Z,27.97
2022-07-31T14:34:35.262Z,28.22
2022-07-31T14:36:57.558Z,28.36
2022-07-31T14:39:28.404Z,28.46
2022-07-31T14:41:58.930Z,28.48
2022-07-31T14:44:29.424Z,28.26
2022-07-31T14:46:59.849Z,28.48
2022-07-31T14:50:07.952Z,28.35
2022-07-31T14:52:04.231Z,28.36
2022-07-31T14:54:34.784Z,28.50
2022-07-31T14:57:05.395Z,28.55
2022-07-31T14:59:37.665Z,28.75
2022-07-31T15:02:08.130Z,28.93
2022-07-31T15:04:39.095Z,29.11
2022-07-31T15:07:33.711Z,29.14
2022-07-31T15:09:42.063Z,29.08
2022-07-31T15:12:16.820Z,29.43
2022-07-31T15:14:47.391Z,29.15
2022-07-31T15:17:17.912Z,29.39
2022-07-31T15:19:48.384Z,29.34
2022-07-31T15:22:19.488Z,29.23
2022-07-31T15:24:50.528Z,29.12
2022-07-31T15:27:22.966Z,28.65
2022-07-31T15:30:03.838Z,29.15
2022-07-31T15:32:26.667Z,29.01
2022-07-31T15:34:57.381Z,29.22
2022-07-31T15:37:27.862Z,29.33
2022-07-31T15:40:02.348Z,29.01
2022-07-31T15:42:30.917Z,28.72
2022-07-31T15:45:01.483Z,28.71
2022-07-31T15:47:31.997Z,28.77
2022-07-31T15:50:02.581Z,28.76
2022-07-31T15:52:32.961Z,28.59
2022-07-31T15:55:04.440Z,28.63
2022-07-31T15:57:35.136Z,28.22
2022-07-31T16:00:09.677Z,28.27
2022-07-31T16:02:41.496Z,28.30
2022-07-31T16:05:35.793Z,28.62
2022-07-31T16:08:31.638Z,28.59
2022-07-31T16:10:18.406Z,28.58
2022-07-31T16:12:49.326Z,28.23
2022-07-31T16:15:19.869Z,27.98
2022-07-31T16:17:50.917Z,27.92
2022-07-31T16:20:26.625Z,28.12
2022-07-31T16:23:01.215Z,28.03
2022-07-31T16:25:34.677Z,27.84
2022-07-31T16:28:05.755Z,28.16
2022-07-31T16:30:36.282Z,28.06
2022-07-31T16:33:06.808Z,27.95
2022-07-31T16:35:37.596Z,27.82
2022-07-31T16:38:08.423Z,27.85
2022-07-31T16:40:42.194Z,27.85
2022-07-31T16:43:47.311Z,27.81
2022-07-31T16:45:55.811Z,27.62
2022-07-31T16:48:26.386Z,27.72
2022-07-31T16:50:56.843Z,27.62
2022-07-31T16:54:14.739Z,27.76
2022-07-31T16:56:02.169Z,27.39
2022-07-31T16:58:32.777Z,27.38
2022-07-31T17:01:57.433Z,27.36
2022-07-31T17:04:02.077Z,27.22
2022-07-31T17:06:10.852Z,27.13
2022-07-31T17:08:42.986Z,27.02
2022-07-31T17:11:13.526Z,26.82
2022-07-31T17:13:43.871Z,26.81
2022-07-31T17:16:14.321Z,26.85
2022-07-31T17:18:49.499Z,26.96
2022-07-31T17:21:19.179Z,26.78
2022-07-31T17:23:51.377Z,26.83
2022-07-31T17:26:23.641Z,26.74
2022-07-31T17:28:54.055Z,26.81
2022-07-31T17:31:24.868Z,26.79
2022-07-31T17:34:00.710Z,26.76
2022-07-31T17:36:27.655Z,26.66
2022-07-31T17:38:58.920Z,26.63
2022-07-31T17:41:29.814Z,26.58
2022-07-31T17:44:01.632Z,26.58
2022-07-31T17:46:36.427Z,26.37
2022-07-31T17:49:09.897Z,26.43
2022-07-31T17:51:40.449Z,26.24
2022-07-31T17:54:12.537Z,26.24
2022-07-31T17:56:43.092Z,26.17
2022-07-31T17:59:15.077Z,26.19
2022-07-31T18:02:02.052Z,26.10
2022-07-31T18:04:17.851Z,26.04
2022-07-31T18:06:54.485Z,25.96
2022-07-31T18:09:23.812Z,25.86
2022-07-31T18:11:55.773Z,25.76
2022-07-31T18:14:26.511Z,25.73
2022-07-31T18:16:56.894Z,25.74
2022-07-31T18:19:27.818Z,25.87
2022-07-31T18:21:58.696Z,25.68
2022-07-31T18:24:29.123Z,25.72
2022-07-31T18:26:59.811Z,25.72
2022-07-31T18:29:30.348Z,25.66
2022-07-31T18:32:02.074Z,25.58
2022-07-31T18:34:33.053Z,25.51
2022-07-31T18:37:03.965Z,25.45
2022-07-31T18:39:34.608Z,25.43
2022-07-31T18:42:08.266Z,25.36
2022-07-31T18:44:38.925Z,25.43
2022-07-31T18:47:10.646Z,25.32
2022-07-31T18:51:00.844Z,25.44
2022-07-31T18:52:13.491Z,25.42
2022-07-31T18:54:44.579Z,25.30
2022-07-31T18:57:15.092Z,25.27
2022-07-31T18:59:45.635Z,25.39
2022-07-31T19:02:16.555Z,25.26
2022-07-31T19:04:48.724Z,25.21
2022-07-31T19:07:19.396Z,25.25
2022-07-31T19:09:50.131Z,25.36
2022-07-31T19:12:20.561Z,25.34
2022-07-31T19:14:51.066Z,25.32
2022-07-31T19:17:21.706Z,25.36
2022-07-31T19:20:02.106Z,25.18
2022-07-31T19:22:27.603Z,25.19
2022-07-31T19:25:05.118Z,25.38
2022-07-31T19:27:47.156Z,25.08
2022-07-31T19:30:10.068Z,25.07
2022-07-31T19:32:41.148Z,25.13
2022-07-31T19:35:11.643Z,25.09
2022-07-31T19:37:42.265Z,25.00
2022-07-31T19:40:13.305Z,24.98
2022-07-31T19:42:43.865Z,24.93
2022-07-31T19:45:14.359Z,24.93
2022-07-31T19:47:45.202Z,24.99
2022-07-31T19:50:17.083Z,24.84
2022-07-31T19:52:47.620Z,24.83
2022-07-31T19:55:18.527Z,24.92
2022-07-31T19:57:48.958Z,24.80
2022-07-31T20:00:19.578Z,24.81
2022-07-31T20:02:50.704Z,24.81
2022-07-31T20:05:21.591Z,24.77
2022-07-31T20:07:52.201Z,24.76
2022-07-31T20:10:22.759Z,24.82
2022-07-31T20:12:54.505Z,24.74
2022-07-31T20:15:25.403Z,24.75
2022-07-31T20:17:57.510Z,24.74
2022-07-31T20:20:28.219Z,24.68
2022-07-31T20:23:00.233Z,24.61
2022-07-31T20:25:33.301Z,24.64
2022-07-31T20:28:03.135Z,24.54
2022-07-31T20:30:33.793Z,24.44
2022-07-31T20:33:04.960Z,24.44
2022-07-31T20:35:48.718Z,24.46
2022-07-31T20:38:15.706Z,24.42
2022-07-31T20:40:48.246Z,24.39
2022-07-31T20:43:16.731Z,24.27
2022-07-31T20:45:47.833Z,24.30
2022-07-31T20:48:18.690Z,24.36
2022-07-31T20:50:49.442Z,24.26
2022-07-31T20:53:21.790Z,24.27
2022-07-31T20:55:52.667Z,24.40
2022-07-31T20:58:27.345Z,24.40
2022-07-31T21:00:58.105Z,24.36
2022-07-31T21:03:29.300Z,24.29
2022-07-31T21:05:59.969Z,24.25
2022-07-31T21:08:30.433Z,24.16
2022-07-31T21:11:01.232Z,24.19
2022-07-31T21:13:32.163Z,24.22
2022-07-31T21:16:03.814Z,24.16
2022-07-31T21:18:37.875Z,24.21
2022-07-31T21:21:07.482Z,24.16
2022-07-31T21:23:39.048Z,24.11
2022-07-31T21:26:10.069Z,24.09
2022-07-31T21:28:41.101Z,23.96
2022-07-31T21:31:12.341Z,24.10
2022-07-31T21:33:43.334Z,24.03
2022-07-31T21:36:15.311Z,23.95
2022-07-31T21:38:46.247Z,23.90
2022-07-31T21:41:17.596Z,23.83
2022-07-31T21:43:58.547Z,23.80
2022-07-31T21:46:22.999Z,23.74
2022-07-31T21:48:53.754Z,23.69
2022-07-31T21:51:24.555Z,23.70
2022-07-31T21:53:55.205Z,23.71
2022-07-31T21:56:25.753Z,23.68
2022-07-31T21:58:56.288Z,23.67
2022-07-31T22:01:26.844Z,23.70
2022-07-31T22:03:57.817Z,23.64
2022-07-31T22:06:46.122Z,23.60
2022-07-31T22:09:18.319Z,23.55
2022-07-31T22:11:58.910Z,23.55
2022-07-31T22:14:22.284Z,23.56
2022-07-31T22:16:52.849Z,23.58
2022-07-31T22:19:23.988Z,23.70
2022-07-31T22:21:57.539Z,23.44
2022-07-31T22:24:28.654Z,23.62
2022-07-31T22:27:16.726Z,23.43
2022-07-31T22:29:46.785Z,23.42
2022-07-31T22:32:17.627Z,23.28
2022-07-31T22:34:48.263Z,23.36
2022-07-31T22:37:20.982Z,23.22
2022-07-31T22:39:52.447Z,22.92
2022-07-31T22:42:24.248Z,22.97
2022-07-31T22:44:55.421Z,22.78
2022-07-31T22:47:28.271Z,22.74
2022-07-31T22:49:59.293Z,22.60
2022-07-31T22:52:33.227Z,22.34
2022-07-31T22:55:03.604Z,22.32
2022-07-31T22:57:34.339Z,22.14
2022-07-31T23:00:07.961Z,22.12
2022-07-31T23:02:39.072Z,21.98
2022-07-31T23:05:10.440Z,21.95
2022-07-31T23:07:40.945Z,22.02
2022-07-31T23:10:12.744Z,21.90
2022-07-31T23:12:43.185Z,21.88
2022-07-31T23:15:13.711Z,21.84
2022-07-31T23:17:44.133Z,21.78
2022-07-31T23:20:17.823Z,21.67
2022-07-31T23:22:47.507Z,21.65
2022-07-31T23:25:19.701Z,21.54
2022-07-31T23:27:50.337Z,21.52
2022-07-31T23:30:20.857Z,21.46
2022-07-31T23:32:51.508Z,21.31
2022-07-31T23:35:22.242Z,21.28
2022-07-31T23:37:52.694Z,21.30
2022-07-31T23:40:23.434Z,21.23
2022-07-31T23:42:54.168Z,21.26
2022-07-31T23:45:24.845Z,21.26
2022-07-31T23:47:59.054Z,21.24
2022-07-31T23:50:27.975Z,21.19
2022-07-31T23:52:58.477Z,21.18
2022-07-31T23:55:29.275Z,21.18
2022-07-31T23:57:59.806Z,21.24
